x

Sentry Shoal (46131) Wave Buoy

9:00 - Fri 22nd Aug 2014 All times are PDT. -7 hours from GMT.

  • Sig Wave height 0.3ft
  • Peak Period 3s
  • Wind
    9mph, 11mph gusts
  • Sea Temp 64°f
  • Ar Temp 69°f
  • Sea Pressure 1017.6mb
  • Sentry Shoal
  • Sentry Shoal

More Historic Weather Station data

Upgrade to MSW Pro to gain access to the past 30 days of data for over 8000 Wavebouys and Weather Stations around the globe.

Join Pro

Comparision Forecast

View Surf forecast
   
Sex 08/22 9:00 0.3ft 3s 9 11 mph 1017.6mb 64f 69f
8:00  -  2s  -  mph 1017.1mb 64f 71f
7:00  -  2s 2 4 mph 1016.9mb 67f 71f
6:00  -  2s 4
mph
1016.9mb 67f 71f
5:00 0.3ft 2s 2
mph
1017mb 66f 69f
4:00 0.3ft 3s 4
mph
1017.2mb 66f 68f
3:00 0.3ft 2s 4 7 mph 1017.5mb 65f 67f
2:00 0.3ft 2s 2 4 mph 1017.8mb 65f 69f
1:00 0.3ft 2s 4
mph
1018mb 64f 66f
12:00 0.3ft 2s 4 7 mph 1018.4mb 62f 64f
11:00 0.3ft 2s 9 11 mph 1018.6mb 62f 63f
10:00 0.7ft 3s 11
mph
1018.7mb 62f 61f
9:00 1ft 2s 13 16 mph 1018.5mb 62f 60f
8:00 1ft 3s 13 16 mph 1018.2mb 62f 60f
7:00 1ft 3s 13 16 mph 1018mb 64f 60f
6:00 0.7ft 2s 16 20 mph 1017.4mb 61f 60f
5:00 0.7ft 2s 9 11 mph 1017.2mb 60f 60f
4:00 0.7ft 2s 13 16 mph 1017mb 61f 61f
3:00 0.3ft 2s 13
mph
1016.8mb 60f 62f
2:00 0.3ft 2s 9 11 mph 1016.7mb 61f 63f
1:00 0.7ft 2s 13 18 mph 1016.3mb 62f 64f
12:00 0.3ft 3s 13 16 mph 1015.8mb 63f 64f
Qui 08/21 11:00 0.3ft 3s 7 9 mph 1015.7mb 63f 64f
10:00 0.3ft 2s 4 7 mph 1015.2mb 64f 64f
9:00 0.3ft 2s  -  2 mph 1015.1mb 63f 65f
8:00  -  2s 4
mph
1014.6mb 60f 65f
7:00  -  2s 2
mph
1014.2mb 62f 66f
6:00 0.3ft 3s 4
mph
1014.2mb 64f 66f
5:00 0.3ft 3s 4
mph
1014.3mb 64f 66f
4:00 0.3ft 3s 4 7 mph 1014.5mb 62f 66f
3:00 0.3ft 2s 4 7 mph 1014.9mb 64f 65f
2:00 0.3ft 4s 2 4 mph 1015.5mb 64f 65f
1:00 0.3ft 2s  -  2 mph 1015.9mb 64f 64f
12:00 0.3ft 3s 2 4 mph 1016.4mb 63f 62f
11:00 0.3ft 3s 4
mph
1016.6mb 63f 61f
10:00 0.3ft 2s 4 7 mph 1016.6mb 62f 60f
9:00 0.3ft 2s 9 11 mph 1016.6mb 62f 59f
8:00 0.3ft 2s 9
mph
1016.3mb 62f 59f
7:00 0.3ft 2s 9 11 mph 1016.1mb 62f 59f
6:00 0.3ft 2s 9
mph
1015.9mb 62f 59f
5:00 0.3ft 3s 11 13 mph 1015.7mb 62f 60f
4:00 0.3ft 4s 7 9 mph 1015.7mb 61f 59f
3:00 0.3ft 4s 7 9 mph 1015.7mb 62f 60f
2:00 0.3ft 3s 2 7 mph 1015.6mb 62f 62f
1:00 0.3ft 3s 7
mph
1015.4mb 63f 63f
12:00 0.3ft 3s  -  2 mph 1015mb 63f 63f
Qua 08/20 11:00 0.3ft 2s  -  2 mph 1014.5mb 63f 63f
10:00 0.3ft 7s 4
mph
1014.1mb 63f 64f
9:00 0.3ft 6s 4
mph
1013.6mb 63f 64f
8:00 0.3ft 3s 4 7 mph 1013.3mb 64f 65f
7:00 0.3ft 2s 7
mph
1013.3mb 64f 66f
6:00 0.3ft 4s 4 7 mph 1013.3mb 65f 66f
5:00 0.3ft 5s 4 7 mph 1013.5mb 65f 66f
4:00 0.3ft 6s 2 4 mph 1013.6mb 65f 65f
3:00 0.3ft 3s 4 7 mph 1013.8mb 65f 64f
2:00 0.3ft 2s 4
mph
1013.9mb 64f 64f
1:00 0.3ft 3s 7 9 mph 1013.9mb 63f 63f
12:00 0.3ft 3s 4
mph
1013.8mb 63f 63f
11:00 0.3ft 2s 7 9 mph 1013.7mb 62f 62f
10:00 0.3ft 2s 4 7 mph 1013.6mb 62f 61f
9:00 0.7ft 2s 11
mph
1013.1mb 62f 60f
8:00 0.7ft 2s 9 13 mph 1012.7mb 62f 59f
7:00 0.7ft 2s 9 11 mph 1012.1mb 62f 59f
6:00 0.7ft 2s 11
mph
1011.5mb 62f 60f
5:00 0.7ft 3s 9 11 mph 1011mb 62f 60f
4:00 1ft 3s 11 13 mph 1010.5mb 61f 60f
3:00 1ft 3s 13 16 mph 1010.2mb 62f 60f
2:00 1.3ft 3s 18 20 mph 1009.8mb 62f 61f
1:00 1ft 3s 18 20 mph 1009.4mb 63f 62f
12:00 1ft 3s 18 22 mph 1009.1mb 63f 62f
Ter 08/19 11:00 1ft 3s 16 20 mph 1009.3mb 63f 63f
10:00 1.3ft 3s 18 20 mph 1008.9mb 63f 64f
9:00  -   -  22
mph
- - -
8:00 1.6ft 3s 22 25 mph 1008.2mb 64f 67f
7:00 1.3ft 3s 18 22 mph 1007.9mb 65f 69f
6:00 0.7ft 2s 16 18 mph 1008.1mb 66f 69f
5:00 0.3ft 2s 11
mph
1008.2mb 65f 69f
4:00 0.3ft 3s 4
mph
1008.6mb 65f 69f
3:00 0.7ft 3s 4 7 mph 1008.7mb 65f 69f
2:00 0.7ft 3s 7 9 mph 1008.9mb 64f 68f
1:00 1ft 3s 9 11 mph 1009.2mb 64f 67f
12:00 1ft 3s 9 11 mph 1009.4mb 64f 66f
11:00 1.3ft 3s 13 16 mph 1009.5mb 63f 66f
10:00 1.6ft 3s 16 20 mph 1009.5mb 63f 65f
9:00 1.6ft 3s 20 27 mph 1009.6mb 64f 64f
8:00 1.3ft 3s 20 22 mph 1009.6mb 64f 64f
7:00 1ft 3s 16 18 mph 1009.5mb 64f 64f
6:00 1ft 3s 18 22 mph 1009.3mb 64f 65f